Stolt Spray — ZCSQ9 — position and weather

sailwx.info

Track history (hours):
 
Tides and Currents Weather Stations Pressure Air Temp Water Temp Dewpoint Dewpoint Depression Visibility Wind Speed Wind Dir Waves Ship Positions

Stolt Spray

Last reported at 2014-Nov-27 03:25 UTC. Time now 2014-Nov-27 09:30 UTC.
Position N 29°45' W 095°11'.

Length 163 m; draft 6.9 m.

Type: Ship (hazmat cat A). MMSI: 319591000.

Date/timePositionNaut miles runAvg speedWind from/ knotsBaromVisibWave heightAir tempDewpointWater temp
2014-Nov-27 03:25N 29°45' W 095°11'5 5.5
2014-Nov-27 02:31N 29°45' W 095°06'8 8.1
2014-Nov-27 01:33N 29°40' W 094°59'1212.5
2014-Nov-27 00:34N 29°29' W 094°52'  
2014-Nov-24 17:13N 19°24' W 095°57'913.1
2014-Nov-24 16:33N 19°15' W 095°58'1010.0
2014-Nov-24 15:34N 19°12' W 096°08'1 0.6
2014-Nov-24 14:32N 19°13' W 096°08'0 0.0
2014-Nov-24 13:32N 19°13' W 096°08'0 0.0
2014-Nov-24 12:32N 19°13' W 096°08'0 0.0
2014-Nov-24 11:32N 19°13' W 096°08'0 0.0
2014-Nov-24 10:32N 19°13' W 096°08'0 0.0
2014-Nov-24 09:32N 19°13' W 096°08'0 0.0
2014-Nov-24 08:32N 19°13' W 096°08'0 0.0
2014-Nov-24 07:32N 19°13' W 096°08'0 0.0
2014-Nov-24 06:29N 19°13' W 096°08'0 0.0
2014-Nov-24 05:32N 19°13' W 096°08'0 0.0
2014-Nov-24 04:32N 19°13' W 096°08'0 0.0
2014-Nov-24 03:32N 19°13' W 096°08'0 0.0
2014-Nov-24 02:32N 19°13' W 096°08'0 0.0
2014-Nov-24 01:32N 19°13' W 096°08'0 0.0
2014-Nov-24 00:32N 19°13' W 096°08'0 0.0
2014-Nov-23 23:32N 19°13' W 096°08'0 0.0
2014-Nov-23 22:32N 19°13' W 096°08'0 0.0
2014-Nov-23 21:32N 19°13' W 096°08'0 0.0
2014-Nov-23 20:32N 19°13' W 096°08'1 1.5
2014-Nov-23 19:34N 19°12' W 096°07'6 5.5
2014-Nov-23 18:32N 19°09' W 096°02'0 0.1
2014-Nov-23 17:32N 19°09' W 096°02'0 0.1
2014-Nov-23 16:32N 19°09' W 096°02'0 0.0
2014-Nov-23 15:32N 19°09' W 096°02'0 0.0
2014-Nov-23 14:29N 19°09' W 096°02'0 0.0
2014-Nov-23 13:32N 19°09' W 096°02'0 0.0
2014-Nov-23 12:32N 19°09' W 096°02'5 4.6
2014-Nov-23 11:33N 19°12' W 095°58'1312.6
2014-Nov-23 10:33N 19°15' W 095°45'3212.9
2014-Nov-23 08:06N 19°27' W 095°14'  
2014-Nov-20 04:20N 25°47' W 079°47'810.7
2014-Nov-20 03:34N 25°56' W 079°48'1110.6
2014-Nov-20 02:34N 26°06' W 079°50'1010.5
2014-Nov-20 01:34N 26°16' W 079°47'1010.5
2014-Nov-20 00:34N 26°27' W 079°46'1110.3
2014-Nov-19 23:33N 26°37' W 079°46'1410.4
2014-Nov-19 22:15N 26°51' W 079°45'710.2
2014-Nov-19 21:34N 26°58' W 079°45'314 8.5
2014-Nov-18 08:23N 32°05' W 081°03'0 0.0
2014-Nov-18 07:26N 32°05' W 081°03'0 0.0
2014-Nov-18 05:32N 32°05' W 081°03'0 0.0
2014-Nov-18 04:32N 32°05' W 081°03'0 0.0
2014-Nov-18 03:32N 32°05' W 081°03'0 0.0
2014-Nov-18 02:32N 32°05' W 081°03'0 0.0
2014-Nov-18 01:32N 32°05' W 081°03'0 0.0
2014-Nov-18 00:32N 32°05' W 081°03'0 0.0
2014-Nov-17 23:32N 32°05' W 081°03'0 0.0
2014-Nov-17 22:29N 32°05' W 081°03'0 0.0
2014-Nov-17 21:32N 32°05' W 081°03'0 0.0
2014-Nov-17 20:32N 32°05' W 081°03'0 0.0
2014-Nov-17 19:32N 32°05' W 081°03'0 0.0
2014-Nov-17 18:30N 32°05' W 081°03'0 0.0
2014-Nov-17 17:32N 32°05' W 081°03'1 1.1
2014-Nov-17 16:33N 32°05' W 081°04'  
Track history (hours):
 
Tides and Currents Weather Stations Pressure Air Temp Water Temp Dewpoint Dewpoint Depression Visibility Wind Speed Wind Dir Waves Ship Positions

Stolt Spray

Last reported at 2014-Nov-27 03:25 UTC. Time now 2014-Nov-27 09:30 UTC.
Position N 29°45' W 095°11'.

Length 163 m; draft 6.9 m.

Type: Ship (hazmat cat A). MMSI: 319591000.

Date/timePositionNaut miles runAvg speedWind from/ knotsBaromVisibWave heightAir tempDewpointWater temp
2014-Nov-27 03:25N 29°45' W 095°11'5 5.5
2014-Nov-27 02:31N 29°45' W 095°06'8 8.1
2014-Nov-27 01:33N 29°40' W 094°59'1212.5
2014-Nov-27 00:34N 29°29' W 094°52'  
2014-Nov-24 17:13N 19°24' W 095°57'913.1
2014-Nov-24 16:33N 19°15' W 095°58'1010.0
2014-Nov-24 15:34N 19°12' W 096°08'1 0.6
2014-Nov-24 14:32N 19°13' W 096°08'0 0.0
2014-Nov-24 13:32N 19°13' W 096°08'0 0.0
2014-Nov-24 12:32N 19°13' W 096°08'0 0.0
2014-Nov-24 11:32N 19°13' W 096°08'0 0.0
2014-Nov-24 10:32N 19°13' W 096°08'0 0.0
2014-Nov-24 09:32N 19°13' W 096°08'0 0.0
2014-Nov-24 08:32N 19°13' W 096°08'0 0.0
2014-Nov-24 07:32N 19°13' W 096°08'0 0.0
2014-Nov-24 06:29N 19°13' W 096°08'0 0.0
2014-Nov-24 05:32N 19°13' W 096°08'0 0.0
2014-Nov-24 04:32N 19°13' W 096°08'0 0.0
2014-Nov-24 03:32N 19°13' W 096°08'0 0.0
2014-Nov-24 02:32N 19°13' W 096°08'0 0.0
2014-Nov-24 01:32N 19°13' W 096°08'0 0.0
2014-Nov-24 00:32N 19°13' W 096°08'0 0.0
2014-Nov-23 23:32N 19°13' W 096°08'0 0.0
2014-Nov-23 22:32N 19°13' W 096°08'0 0.0
2014-Nov-23 21:32N 19°13' W 096°08'0 0.0
2014-Nov-23 20:32N 19°13' W 096°08'1 1.5
2014-Nov-23 19:34N 19°12' W 096°07'6 5.5
2014-Nov-23 18:32N 19°09' W 096°02'0 0.1
2014-Nov-23 17:32N 19°09' W 096°02'0 0.1
2014-Nov-23 16:32N 19°09' W 096°02'0 0.0
2014-Nov-23 15:32N 19°09' W 096°02'0 0.0
2014-Nov-23 14:29N 19°09' W 096°02'0 0.0
2014-Nov-23 13:32N 19°09' W 096°02'0 0.0
2014-Nov-23 12:32N 19°09' W 096°02'5 4.6
2014-Nov-23 11:33N 19°12' W 095°58'1312.6
2014-Nov-23 10:33N 19°15' W 095°45'3212.9
2014-Nov-23 08:06N 19°27' W 095°14'  
2014-Nov-20 04:20N 25°47' W 079°47'810.7
2014-Nov-20 03:34N 25°56' W 079°48'1110.6
2014-Nov-20 02:34N 26°06' W 079°50'1010.5
2014-Nov-20 01:34N 26°16' W 079°47'1010.5
2014-Nov-20 00:34N 26°27' W 079°46'1110.3
2014-Nov-19 23:33N 26°37' W 079°46'1410.4
2014-Nov-19 22:15N 26°51' W 079°45'710.2
2014-Nov-19 21:34N 26°58' W 079°45'314 8.5
2014-Nov-18 08:23N 32°05' W 081°03'0 0.0
2014-Nov-18 07:26N 32°05' W 081°03'0 0.0
2014-Nov-18 05:32N 32°05' W 081°03'0 0.0
2014-Nov-18 04:32N 32°05' W 081°03'0 0.0
2014-Nov-18 03:32N 32°05' W 081°03'0 0.0
2014-Nov-18 02:32N 32°05' W 081°03'0 0.0
2014-Nov-18 01:32N 32°05' W 081°03'0 0.0
2014-Nov-18 00:32N 32°05' W 081°03'0 0.0
2014-Nov-17 23:32N 32°05' W 081°03'0 0.0
2014-Nov-17 22:29N 32°05' W 081°03'0 0.0
2014-Nov-17 21:32N 32°05' W 081°03'0 0.0
2014-Nov-17 20:32N 32°05' W 081°03'0 0.0
2014-Nov-17 19:32N 32°05' W 081°03'0 0.0
2014-Nov-17 18:30N 32°05' W 081°03'0 0.0
2014-Nov-17 17:32N 32°05' W 081°03'1 1.1
2014-Nov-17 16:33N 32°05' W 081°04'  

Dump ship's entire track history